Quartzsite, Arizona
Current Conditions -  °F | °C
As of 4:52 AM on Thursday 23 Oct 2014 (Local Time) from KBLH Reporting Station
Clear Clear  
Wind Chill: 18°   Ceiling: Unl
Heat Index: 18°   Visibility: 10mi
Dew Point:   Wind: 7mph
Humidity: 45%   Direction: 340°NNW
Pressure: 29.93"   Gusts: NA
Location:  33.67°N, 114.22°W
Report Text: KBLH 231152Z AUTO 34006KT 10SM CLR 18/06 A2993 RMK AO2 SLP131 T01830061 10267 20178 53001
Loading
Personal Weather Stations






























Interactive Weather Map
Tropical Storm Tracking
New forecast layout! Learn more

10-Day Weather Forecast

Advertisements
Track Severe Weather on mobile